Schalkhaar, Netherlands
Current Conditions -  °F | °C
As of 5:25 PM on Tuesday 21 Oct 2014 (Local Time) from EHDL Reporting Station
Heavy Rain Heavy Rain  
Wind Chill: 50°   Ceiling: 2900
Heat Index: 50°   Visibility: 6mi
Dew Point: 48°   Wind: 8mph
Humidity: 94%   Direction: 270°W
Pressure: 29.5"   Gusts: NA
Location:  52.27°N, 6.19°E
Report Text: EHDL 211525Z AUTO 27007KT 9999 +DZRA SCT025 BKN029 BKN041 10/09 Q0999 BLU
Loading
Personal Weather Stations






























Interactive Weather Map
Tropical Storm Tracking
New forecast layout! Learn more

10-Day Weather Forecast

Advertisements
Track Severe Weather on mobile